Latest Weather Observations for Blackwater Airport

IDQ60801

Issued at 2:02 pm EST Saturday 20 December 2014 (issued every 30 minutes, with the page automatically refreshed every 10 minutes)

About weather observations | Map of weather stations | Latest weather observations for QLD | Other Formats
Station Details ID: 035134 Name: BLACKWATER AIRPORT Lat: -23.60 Lon: 148.81 Height: 192.95 m
Data from the previous 72 hours. | See also: Recent months at Blackwater Airport
Date/Time
EST
Temp
°C
App
Temp
°C
Dew
Point
Rel
Hum
%
Delta-T
°C
Wind Press
QNH
hPa
Press
MSL
hPa
Rain
since 9 am
mm
Dir
 
Spd
km/h
Gust
km/h
Spd
kts
Gust
kts
20/02:00pm 33.7 32.9 16.1 34 11.2 ENE 15 24 8 13 1011.5 1010.2 0.0
20/01:30pm 33.2 32.8 16.1 35 10.8 NE 13 20 7 11 1012.0 1010.8 0.0
20/01:00pm 33.5 32.2 16.8 36 10.7 NE 19 30 10 16 1012.3 1011.1 0.0
20/12:30pm 32.5 31.4 16.3 37 10.3 NE 17 26 9 14 1012.8 1011.6 0.0
20/12:00pm 32.3 31.0 15.7 36 10.4 ENE 17 30 9 16 1013.1 1011.9 0.0
20/11:30am 31.6 30.4 15.1 36 10.2 NNE 15 22 8 12 1013.5 1012.3 0.0
20/11:00am 31.0 31.6 17.7 45 8.6 NNE 11 20 6 11 1014.1 1012.8 0.0
20/10:30am 30.4 30.9 17.5 46 8.3 NNE 11 17 6 9 1014.3 1013.0 0.0
20/10:00am 29.5 29.9 17.3 47 7.8 ESE 11 19 6 10 1014.5 1013.2 0.0
20/09:30am 29.4 29.7 15.9 44 8.4 ESE 9 15 5 8 1014.5 1013.2 0.0
20/09:00am 27.7 30.3 20.0 63 5.1 SW 6 9 3 5 1014.7 1013.4 0.0
20/08:30am 26.6 29.5 20.7 70 3.9 WSW 6 9 3 5 1014.5 1013.2 0.0
20/08:00am 25.8 29.4 20.6 73 3.4 WSW 2 7 1 4 1014.4 1013.1 0.0
20/07:30am 25.1 29.0 20.4 75 3.1 CALM 0 0 0 0 1014.4 1013.1 0.0
20/07:00am 24.6 28.4 20.9 80 2.4 ESE 2 6 1 3 1014.3 1013.0 0.0
20/06:30am 23.0 26.1 21.1 89 1.3 SSE 6 7 3 4 1013.7 1012.5 0.0
20/06:00am 21.5 25.5 20.5 94 0.7 CALM 0 0 0 0 1013.3 1012.1 0.0
20/05:30am 20.4 23.5 19.6 95 0.5 E 2 6 1 3 1012.9 1011.7 0.0
20/05:00am 20.2 21.8 19.2 94 0.6 SSE 9 9 5 5 1012.5 1011.3 0.0
20/04:30am 20.3 22.4 19.3 94 0.6 SSW 7 15 4 8 1012.1 1010.9 0.0
20/04:00am 20.5 23.9 19.3 93 0.8 CALM 0 7 0 4 1011.9 1010.7 0.0
20/03:30am 20.6 23.6 19.3 92 0.8 S 2 9 1 5 1011.7 1010.5 0.0
20/03:00am 21.3 25.0 19.9 92 0.9 CALM 0 0 0 0 1011.7 1010.5 0.0
20/02:30am 21.8 25.7 20.4 92 0.9 CALM 0 0 0 0 1011.8 1010.6 0.0
20/02:00am 21.7 24.5 20.5 93 0.8 NNE 6 7 3 4 1011.9 1010.7 0.0
20/01:30am 21.9 25.8 20.4 91 1.0 CALM 0 0 0 0 1012.0 1010.8 0.0
20/01:00am 22.0 26.0 20.6 92 0.9 CALM 0 0 0 0 1012.2 1011.0 0.0
20/12:30am 22.2 25.1 20.7 91 1.0 SSW 6 7 3 4 1012.5 1011.3 0.0
20/12:00am 22.6 25.6 20.9 90 1.1 SW 6 7 3 4 1012.9 1011.7 0.0
 
Date/Time
EST
Temp
°C
App
Temp
°C
Dew
Point
Rel
Hum
%
Delta-T
°C
Wind Press
QNH
hPa
Press
MSL
hPa
Rain
since 9 am
mm
Dir
 
Spd
km/h
Gust
km/h
Spd
kts
Gust
kts
19/11:30pm 23.0 26.2 21.3 90 1.1 SW 6 7 3 4 1013.3 1012.1 0.0
19/11:00pm 23.4 26.7 21.5 89 1.3 NNW 6 7 3 4 1013.7 1012.5 0.0
19/10:30pm 23.9 28.3 21.4 86 1.7 CALM 0 0 0 0 1013.9 1012.7 0.0
19/10:00pm 23.9 27.2 21.4 86 1.7 ENE 6 7 3 4 1014.1 1012.8 0.0
19/09:30pm 24.1 27.2 21.4 85 1.8 NE 7 9 4 5 1013.8 1012.6 0.0
19/09:00pm 23.8 26.8 21.3 86 1.7 NE 7 9 4 5 1013.4 1012.2 0.0
19/08:30pm 24.4 27.5 21.5 84 1.9 NE 7 9 4 5 1013.2 1012.0 0.0
19/08:00pm 24.4 27.1 21.3 83 2.1 NE 9 9 5 5 1012.9 1011.7 0.0
19/07:30pm 24.9 28.1 21.6 82 2.2 NE 7 9 4 5 1012.6 1011.4 0.0
19/07:00pm 25.6 28.1 21.1 76 3.0 NE 9 9 5 5 1012.3 1011.1 0.0
19/06:30pm 26.9 28.9 20.7 69 4.1 NNE 11 15 6 8 1012.1 1010.9 0.0
19/06:00pm 28.3 30.1 20.3 62 5.3 NE 11 17 6 9 1011.8 1010.6 0.0
19/05:30pm 28.6 30.5 20.6 62 5.3 NNW 11 17 6 9 1011.5 1010.2 0.0
19/05:00pm 28.9 31.0 20.1 59 5.8 NW 9 13 5 7 1011.3 1010.0 0.0
19/04:30pm 28.9 31.5 20.1 59 5.8 W 6 15 3 8 1011.2 1009.9 0.0
19/04:00pm 28.6 30.8 20.3 60 5.5 N 9 15 5 8 1011.3 1010.0 0.0
19/03:30pm 28.6 31.4 21.6 66 4.7 NNW 9 17 5 9 1011.5 1010.2 0.0
19/03:00pm 28.0 30.3 21.3 67 4.5 NNE 11 19 6 10 1011.8 1010.6 0.0
19/02:30pm 27.9 29.9 20.7 65 4.8 NNW 11 20 6 11 1012.2 1011.0 0.0
19/02:00pm 27.2 29.1 20.5 67 4.4 NW 11 17 6 9 1012.5 1011.3 0.0
19/01:30pm 27.0 29.7 21.3 71 3.8 NNW 9 13 5 7 1012.9 1011.7 0.0
19/01:00pm 26.4 29.0 21.2 73 3.5 NNW 9 17 5 9 1013.3 1012.1 0.0
19/12:30pm 25.1 27.0 20.6 76 3.0 NNW 11 13 6 7 1013.6 1012.4 0.0
19/12:00pm 24.9 27.0 20.2 75 3.1 NNW 9 13 5 7 1013.9 1012.7 0.0
19/11:30am 24.3 26.9 20.0 77 2.8 W 6 9 3 5 1014.3 1013.0 0.0
19/11:00am 24.0 26.6 20.1 79 2.5 NW 6 9 3 5 1014.3 1013.0 0.0
19/10:30am 23.7 26.0 19.8 79 2.5 NW 7 11 4 6 1014.2 1012.9 0.0
19/10:00am 23.9 27.4 19.6 77 2.8 CALM 0 7 0 4 1014.2 1012.9 0.0
19/09:30am 23.7 26.3 20.0 80 2.4 W 6 7 3 4 1014.3 1013.0 0.0
19/09:00am 23.5 25.6 19.4 78 2.6 WSW 7 9 4 5 1014.1 1012.8 11.2
19/08:30am 23.0 25.6 20.0 83 1.9 S 6 9 3 5 1014.1 1012.8 11.2
19/08:00am 22.9 24.8 20.6 87 1.5 S 11 17 6 9 1013.9 1012.7 11.2
19/07:30am 22.4 25.0 20.5 89 1.2 S 7 11 4 6 1013.5 1012.3 11.2
19/07:00am 22.2 24.5 20.7 91 1.0 SW 9 11 5 6 1013.2 1012.0 11.0
19/06:30am 22.0 24.8 20.5 91 1.0 SW 6 9 3 5 1012.7 1011.5 11.0
19/06:00am 21.8 24.4 20.4 92 0.9 WSW 7 9 4 5 1012.2 1011.0 11.0
19/05:30am 21.7 23.9 20.3 92 0.9 WSW 9 11 5 6 1012.0 1010.8 11.0
19/05:00am 21.9 24.5 20.5 92 0.9 WSW 7 9 4 5 1011.7 1010.5 11.0
19/04:30am 21.8 24.0 20.4 92 0.9 SW 9 11 5 6 1011.3 1010.0 11.0
19/04:00am 21.7 23.5 20.3 92 0.9 SW 11 13 6 7 1011.2 1009.9 11.0
19/03:30am 21.7 25.1 20.2 91 1.0 SE 2 7 1 4 1010.7 1009.4 11.0
19/03:00am 21.6 25.4 20.2 92 0.9 CALM 0 0 0 0 1011.3 1010.0 11.0
19/02:30am 21.4 23.9 19.9 91 1.0 NE 6 11 3 6 1011.5 1010.2 11.0
19/02:00am 21.4 23.4 19.9 91 1.0 SSE 9 11 5 6 1011.9 1010.7 11.0
19/01:30am 21.5 22.7 20.0 91 1.0 S 13 19 7 10 1012.5 1011.3 11.0
19/01:00am 21.4 22.4 20.2 93 0.8 SSE 15 20 8 11 1012.6 1011.4 11.0
19/12:30am 21.5 22.0 20.1 92 0.9 SSE 17 24 9 13 1013.4 1012.2 11.0
19/12:00am 21.5 22.0 20.1 92 0.9 S 17 28 9 15 1014.5 1013.2 10.8
 
Date/Time
EST
Temp
°C
App
Temp
°C
Dew
Point
Rel
Hum
%
Delta-T
°C
Wind Press
QNH
hPa
Press
MSL
hPa
Rain
since 9 am
mm
Dir
 
Spd
km/h
Gust
km/h
Spd
kts
Gust
kts
18/11:30pm 21.7 21.0 20.2 91 1.0 S 24 35 13 19 1015.1 1013.8 10.6
18/11:00pm 21.8 21.5 20.3 91 1.0 S 22 32 12 17 1015.8 1014.5 9.4
18/10:30pm 22.2 21.1 20.3 89 1.2 SSW 26 35 14 19 1015.9 1014.6 8.2
18/10:00pm 22.9 21.6 20.6 87 1.5 SSW 28 35 15 19 1015.4 1014.1 7.8
18/09:30pm 23.0 20.7 19.4 80 2.3 S 30 43 16 23 1014.6 1013.3 7.2
18/09:14pm 23.7 20.6 19.6 78 2.7 SW 35 46 19 25 1014.7 1013.4 1.2
18/09:00pm 26.6 24.0 18.7 62 5.1 S 30 44 16 24 1012.6 1011.4 0.2
18/08:30pm 27.1 26.7 20.9 69 4.1 S 24 39 13 21 1011.8 1010.6 0.0
18/08:23pm 28.9 29.6 20.4 60 5.6 S 17 33 9 18 1012.3 1011.1 0.0
18/08:00pm 29.7 30.8 20.5 57 6.1 ENE 15 20 8 11 1010.3 1009.0 0.0
18/07:30pm 30.7 31.3 20.3 53 6.9 ENE 17 24 9 13 1009.5 1008.2 0.0
18/07:00pm 31.6 31.7 19.9 50 7.8 NE 19 30 10 16 1009.1 1007.8 0.0
18/06:30pm 32.5 32.8 17.9 41 9.5 NE 13 20 7 11 1008.3 1007.1 0.0
18/06:00pm 33.5 32.5 13.5 29 12.2 NNE 11 15 6 8 1007.6 1006.4 0.0
18/05:30pm 34.8 32.0 12.5 26 13.5 N 19 26 10 14 1007.2 1006.0 0.0
18/05:00pm 35.3 33.2 13.5 27 13.4 N 17 22 9 12 1006.9 1005.6 0.0
18/04:30pm 35.0 32.4 13.2 27 13.3 N 19 28 10 15 1006.7 1005.4 0.0
18/04:00pm 35.5 32.7 13.1 26 13.7 NNE 20 28 11 15 1006.7 1005.4 0.0
18/03:30pm 35.9 32.2 12.8 25 14.1 N 24 33 13 18 1006.7 1005.4 0.0
18/03:00pm 36.5 33.4 14.5 27 13.8 N 24 32 13 17 1007.0 1005.8 0.0
18/02:30pm 35.7 33.5 14.9 29 13.1 N 20 30 11 16 1007.4 1006.2 0.0
18/02:00pm 35.2 32.6 13.9 27 13.2 N 20 33 11 18 1008.0 1006.8 0.0
18/01:30pm 35.6 32.8 14.3 28 13.3 N 22 35 12 19 1008.8 1007.5 0.0
18/01:00pm 35.5 32.7 14.2 28 13.2 N 22 33 12 18 1009.2 1007.9 0.0
18/12:30pm 35.7 32.6 14.4 28 13.3 N 24 33 13 18 1009.5 1008.2 0.0
18/12:00pm 34.9 32.3 13.1 27 13.3 N 19 30 10 16 1010.0 1008.7 0.0
18/11:30am 34.5 31.7 13.3 27 13.0 N 20 30 11 16 1010.4 1009.1 0.0
18/11:00am 33.6 29.5 12.6 28 12.7 N 26 37 14 20 1010.7 1009.4 0.0
18/10:30am 32.7 29.2 13.4 31 11.7 N 24 32 13 17 1010.9 1009.6 0.0
18/10:00am 32.2 30.0 14.3 33 11.0 N 19 28 10 15 1011.0 1009.7 0.0
18/09:30am 31.5 29.2 14.2 35 10.6 N 19 28 10 15 1011.4 1010.1 0.0
18/09:00am 30.2 30.5 18.0 48 7.9 NNE 13 20 7 11 1011.5 1010.2 0.0
18/08:30am 29.2 29.1 19.5 56 6.4 NNE 19 24 10 13 1011.5 1010.2 0.0
18/08:00am 27.7 27.4 19.5 61 5.4 NE 20 26 11 14 1011.4 1010.1 0.0
18/07:30am 27.9 27.7 19.7 61 5.4 NE 20 26 11 14 1011.5 1010.2 0.0
18/07:00am 27.2 27.7 20.0 64 4.7 ENE 17 26 9 14 1011.6 1010.3 0.0
18/06:30am 25.5 25.8 20.5 74 3.3 ENE 19 26 10 14 1011.2 1009.9 0.0
18/06:00am 24.5 26.4 22.0 86 1.7 ENE 15 20 8 11 1011.0 1009.7 0.0
18/05:30am 23.3 25.0 21.0 87 1.5 NE 13 17 7 9 1010.6 1009.3 0.0
18/05:00am 23.1 24.2 19.7 81 2.2 NE 13 19 7 10 1010.3 1009.0 0.0
18/04:30am 23.4 24.2 18.1 72 3.3 NE 11 15 6 8 1010.1 1008.8 0.0
18/04:00am 23.4 24.0 17.6 70 3.6 NNE 11 15 6 8 1009.5 1008.2 0.0
18/03:30am 24.2 24.5 17.9 68 4.0 ENE 13 15 7 8 1009.5 1008.2 0.0
18/03:00am 23.3 23.7 16.4 65 4.2 NE 9 11 5 6 1009.4 1008.1 0.0
18/02:30am 23.8 23.3 15.0 57 5.3 NNE 11 15 6 8 1008.9 1007.6 0.0
18/02:00am 24.7 23.8 14.8 54 6.0 ENE 13 15 7 8 1008.9 1007.6 0.0
18/01:30am 24.9 23.8 14.4 52 6.3 E 13 17 7 9 1008.5 1007.3 0.0
18/01:00am 24.8 23.7 14.3 52 6.3 ENE 13 17 7 9 1008.5 1007.3 0.0
18/12:30am 25.7 23.9 14.5 50 6.7 ENE 17 20 9 11 1008.7 1007.4 0.0
18/12:00am 25.1 23.7 14.6 52 6.3 ENE 15 17 8 9 1008.9 1007.6 0.0
 
Date/Time
EST
Temp
°C
App
Temp
°C
Dew
Point
Rel
Hum
%
Delta-T
°C
Wind Press
QNH
hPa
Press
MSL
hPa
Rain
since 9 am
mm
Dir
 
Spd
km/h
Gust
km/h
Spd
kts
Gust
kts
17/11:30pm 25.1 24.6 14.8 52 6.2 ENE 11 13 6 7 1009.1 1007.8 0.0
17/11:00pm 25.7 25.3 15.1 52 6.4 ENE 11 13 6 7 1009.3 1008.0 0.0
17/10:30pm 25.2 25.3 15.5 55 5.9 ENE 9 13 5 7 1009.0 1007.7 0.0
17/10:00pm 26.1 25.6 13.9 47 7.3 ENE 9 11 5 6 1008.8 1007.5 0.0
17/09:30pm 26.5 26.0 13.9 45 7.5 ENE 9 13 5 7 1008.1 1006.9 0.0
17/09:00pm 26.7 26.4 15.4 50 6.9 NE 11 13 6 7 1007.6 1006.4 0.0
17/08:30pm 27.8 27.4 16.1 49 7.3 NE 13 17 7 9 1007.2 1006.0 0.0
17/08:00pm 28.2 27.0 14.1 42 8.5 NE 13 17 7 9 1007.0 1005.8 0.0
17/07:30pm 29.0 27.4 14.0 39 9.1 N 15 17 8 9 1006.7 1005.4 0.0
17/07:00pm 30.0 28.3 13.7 37 9.9 NNE 15 15 8 8 1006.5 1005.2 0.0
17/06:30pm 32.3 30.6 13.5 32 11.4 N 15 19 8 10 1006.4 1005.1 0.0
17/06:00pm 34.2 31.8 12.5 27 13.1 N 17 26 9 14 1006.2 1004.9 0.0
17/05:30pm 35.0 32.4 13.2 27 13.3 N 19 24 10 13 1006.0 1004.7 0.0
17/05:00pm 35.6 33.0 13.1 25 13.8 N 19 24 10 13 1005.8 1004.5 0.0
17/04:30pm 36.0 33.5 13.5 26 13.9 N 19 28 10 15 1005.5 1004.2 0.0
17/04:00pm 36.2 34.1 13.6 25 14.0 N 17 24 9 13 1005.5 1004.2 0.0
17/03:30pm 36.1 33.6 13.6 26 13.9 N 19 32 10 17 1005.6 1004.3 0.0
17/03:00pm 36.2 35.1 15.3 28 13.2 N 15 26 8 14 1006.1 1004.8 0.0
17/02:30pm 35.6 33.2 14.3 28 13.3 N 20 28 11 15 1006.6 1005.3 0.0

Other Formats:

Comma delimited format used in spreadsheet applications
http://www.bom.gov.au/fwo/IDQ60801/IDQ60801.94398.axf

JavaScript Object Notation format (JSON) in row-major order
http://www.bom.gov.au/fwo/IDQ60801/IDQ60801.94398.json